createdAt,value
2023-05-10T00:00:22.421Z,591.00
2023-05-10T00:01:22.464Z,590.00
2023-05-10T00:02:22.451Z,592.00
2023-05-10T00:03:22.532Z,592.00
2023-05-10T00:04:22.494Z,589.00
2023-05-10T00:05:22.458Z,591.00
2023-05-10T00:06:22.489Z,590.00
2023-05-10T00:07:22.439Z,587.00
2023-05-10T00:08:22.437Z,593.00
2023-05-10T00:09:22.447Z,589.00
2023-05-10T00:10:22.449Z,589.00
2023-05-10T00:11:23.130Z,587.00
2023-05-10T00:12:22.427Z,593.00
2023-05-10T00:13:22.498Z,591.00
2023-05-10T00:14:22.436Z,589.00
2023-05-10T00:15:22.447Z,590.00
2023-05-10T00:16:22.865Z,590.00
2023-05-10T00:17:22.462Z,595.00
2023-05-10T00:18:22.399Z,590.00
2023-05-10T00:19:22.407Z,594.00
2023-05-10T00:20:22.424Z,592.00
2023-05-10T00:21:22.486Z,591.00
2023-05-10T00:22:22.428Z,592.00
2023-05-10T00:23:22.452Z,593.00
2023-05-10T00:24:22.446Z,593.00
2023-05-10T00:25:22.417Z,588.00
2023-05-10T00:26:22.418Z,591.00
2023-05-10T00:27:22.405Z,593.00
2023-05-10T00:28:22.434Z,596.00
2023-05-10T00:29:22.464Z,592.00
2023-05-10T00:30:22.372Z,594.00
2023-05-10T00:31:22.451Z,592.00
2023-05-10T00:32:22.449Z,596.00
2023-05-10T00:33:22.406Z,595.00
2023-05-10T00:34:22.412Z,597.00
2023-05-10T00:35:22.422Z,596.00
2023-05-10T00:36:22.387Z,593.00
2023-05-10T00:37:22.446Z,590.00
2023-05-10T00:38:22.448Z,590.00
2023-05-10T00:39:22.431Z,593.00
2023-05-10T00:40:22.418Z,591.00
2023-05-10T00:41:22.426Z,592.00
2023-05-10T00:42:22.437Z,597.00
2023-05-10T00:43:22.414Z,594.00
2023-05-10T00:44:22.395Z,596.00
2023-05-10T00:45:22.382Z,594.00
2023-05-10T00:46:22.556Z,590.00
2023-05-10T00:47:22.415Z,590.00
2023-05-10T00:48:22.397Z,594.00
2023-05-10T00:49:22.375Z,599.00
2023-05-10T00:50:22.381Z,596.00
2023-05-10T00:51:22.396Z,597.00
2023-05-10T00:52:22.392Z,596.00
2023-05-10T00:53:22.403Z,593.00
2023-05-10T00:54:22.339Z,592.00
2023-05-10T00:55:22.355Z,597.00
2023-05-10T00:56:22.353Z,599.00
2023-05-10T00:57:22.330Z,597.00
2023-05-10T00:58:22.373Z,598.00
2023-05-10T00:59:22.381Z,603.00
2023-05-10T01:00:22.340Z,604.00
2023-05-10T01:01:22.408Z,601.00
2023-05-10T01:02:22.456Z,596.00
2023-05-10T01:03:22.460Z,602.00
2023-05-10T01:04:22.382Z,600.00
2023-05-10T01:05:22.396Z,599.00
2023-05-10T01:06:22.338Z,598.00
2023-05-10T01:07:22.395Z,601.00
2023-05-10T01:08:22.393Z,603.00
2023-05-10T01:09:22.354Z,603.00
2023-05-10T01:10:22.343Z,599.00
2023-05-10T01:11:22.359Z,602.00
2023-05-10T01:12:22.449Z,599.00
2023-05-10T01:13:22.884Z,597.00
2023-05-10T01:14:22.756Z,602.00
2023-05-10T01:15:22.495Z,598.00
2023-05-10T01:16:22.568Z,599.00
2023-05-10T01:17:22.460Z,600.00
2023-05-10T01:18:22.415Z,603.00
2023-05-10T01:19:22.415Z,595.00
2023-05-10T01:20:22.434Z,601.00
2023-05-10T01:21:22.430Z,597.00
2023-05-10T01:22:22.432Z,607.00
2023-05-10T01:23:22.463Z,596.00
2023-05-10T01:24:22.439Z,601.00
2023-05-10T01:25:22.540Z,603.00
2023-05-10T01:26:22.475Z,603.00
2023-05-10T01:27:22.434Z,603.00
2023-05-10T01:28:22.452Z,601.00
2023-05-10T01:29:22.453Z,597.00
2023-05-10T01:30:22.538Z,604.00
2023-05-10T01:31:22.504Z,605.00
2023-05-10T01:32:22.444Z,605.00
2023-05-10T01:33:22.476Z,606.00
2023-05-10T01:34:22.490Z,605.00
2023-05-10T01:35:22.488Z,608.00
2023-05-10T01:36:22.467Z,602.00
2023-05-10T01:37:22.474Z,605.00
2023-05-10T01:38:22.478Z,603.00
2023-05-10T01:39:22.517Z,603.00
2023-05-10T01:40:22.538Z,606.00
2023-05-10T01:41:22.534Z,600.00
2023-05-10T01:42:22.502Z,606.00
2023-05-10T01:43:22.551Z,608.00
2023-05-10T01:44:22.522Z,604.00
2023-05-10T01:45:22.560Z,604.00
2023-05-10T01:46:22.584Z,605.00
2023-05-10T01:47:22.597Z,602.00
2023-05-10T01:48:22.592Z,602.00
2023-05-10T01:49:22.581Z,602.00
2023-05-10T01:50:22.542Z,605.00
2023-05-10T01:51:22.528Z,604.00
2023-05-10T01:52:22.569Z,604.00
2023-05-10T01:53:22.566Z,603.00
2023-05-10T01:54:22.558Z,602.00
2023-05-10T01:55:22.589Z,603.00
2023-05-10T01:56:22.567Z,601.00
2023-05-10T01:57:22.570Z,607.00
2023-05-10T01:58:22.581Z,603.00
2023-05-10T01:59:22.629Z,607.00
2023-05-10T02:00:22.591Z,604.00
2023-05-10T02:01:22.815Z,605.00
2023-05-10T02:02:22.625Z,604.00
2023-05-10T02:03:22.716Z,607.00
2023-05-10T02:04:22.618Z,604.00
2023-05-10T02:05:22.661Z,601.00
2023-05-10T02:06:22.653Z,600.00
2023-05-10T02:07:22.637Z,602.00
2023-05-10T02:08:22.661Z,597.00
2023-05-10T02:09:22.682Z,600.00
2023-05-10T02:10:22.726Z,606.00
2023-05-10T02:11:22.657Z,598.00
2023-05-10T02:12:22.663Z,603.00
2023-05-10T02:13:22.741Z,606.00
2023-05-10T02:14:22.689Z,602.00
2023-05-10T02:15:22.699Z,608.00
2023-05-10T02:16:22.747Z,609.00
2023-05-10T02:17:22.744Z,605.00
2023-05-10T02:18:22.717Z,610.00
2023-05-10T02:19:22.711Z,607.00
2023-05-10T02:20:22.701Z,605.00
2023-05-10T02:21:22.720Z,607.00
2023-05-10T02:22:22.743Z,608.00
2023-05-10T02:23:22.741Z,605.00
2023-05-10T02:24:22.763Z,603.00
2023-05-10T02:25:22.732Z,608.00
2023-05-10T02:26:22.731Z,605.00
2023-05-10T02:27:22.796Z,602.00
2023-05-10T02:28:22.814Z,609.00
2023-05-10T02:29:22.790Z,608.00
2023-05-10T02:30:22.830Z,606.00
2023-05-10T02:31:22.887Z,610.00
2023-05-10T02:32:22.885Z,606.00
2023-05-10T02:33:22.838Z,606.00
2023-05-10T02:34:22.891Z,600.00
2023-05-10T02:35:22.896Z,606.00
2023-05-10T02:36:22.908Z,604.00
2023-05-10T02:37:22.878Z,609.00
2023-05-10T02:38:22.891Z,608.00
2023-05-10T02:39:22.924Z,602.00
2023-05-10T02:40:22.927Z,608.00
2023-05-10T02:41:22.941Z,613.00
2023-05-10T02:42:22.952Z,612.00
2023-05-10T02:43:22.963Z,608.00
2023-05-10T02:44:22.932Z,610.00
2023-05-10T02:45:22.965Z,610.00
2023-05-10T02:46:23.050Z,607.00
2023-05-10T02:47:22.993Z,608.00
2023-05-10T02:48:23.026Z,608.00
2023-05-10T02:49:23.104Z,612.00
2023-05-10T02:50:23.050Z,612.00
2023-05-10T02:51:23.009Z,608.00
2023-05-10T02:52:23.059Z,605.00
2023-05-10T02:53:23.082Z,609.00
2023-05-10T02:54:23.078Z,611.00
2023-05-10T02:55:23.068Z,607.00
2023-05-10T02:56:23.081Z,608.00
2023-05-10T02:57:23.083Z,612.00
2023-05-10T02:58:23.164Z,609.00
2023-05-10T02:59:23.110Z,610.00
2023-05-10T03:00:23.101Z,612.00
2023-05-10T03:01:23.205Z,609.00
2023-05-10T03:02:23.222Z,608.00
2023-05-10T03:03:23.193Z,611.00
2023-05-10T03:04:23.270Z,611.00
2023-05-10T03:05:23.215Z,609.00
2023-05-10T03:06:23.187Z,615.00
2023-05-10T03:07:23.238Z,610.00
2023-05-10T03:08:23.235Z,610.00
2023-05-10T03:09:23.238Z,610.00
2023-05-10T03:10:23.256Z,615.00
2023-05-10T03:11:23.271Z,609.00
2023-05-10T03:12:23.262Z,609.00
2023-05-10T03:13:23.430Z,614.00
2023-05-10T03:14:23.312Z,611.00
2023-05-10T03:15:23.361Z,608.00
2023-05-10T03:16:23.342Z,612.00
2023-05-10T03:17:23.389Z,613.00
2023-05-10T03:18:23.468Z,608.00
2023-05-10T03:19:23.391Z,607.00
2023-05-10T03:20:23.422Z,608.00
2023-05-10T03:21:23.420Z,611.00
2023-05-10T03:22:23.488Z,609.00
2023-05-10T03:23:23.472Z,607.00
2023-05-10T03:24:23.486Z,613.00
2023-05-10T03:25:23.485Z,610.00
2023-05-10T03:26:23.490Z,613.00
2023-05-10T03:27:23.575Z,613.00
2023-05-10T03:28:23.580Z,606.00
2023-05-10T03:29:23.787Z,607.00
2023-05-10T03:30:23.629Z,610.00
2023-05-10T03:31:23.704Z,611.00
2023-05-10T03:32:23.649Z,612.00
2023-05-10T03:33:23.651Z,611.00
2023-05-10T03:34:23.724Z,614.00
2023-05-10T03:35:23.715Z,610.00
2023-05-10T03:36:23.737Z,610.00
2023-05-10T03:37:23.889Z,609.00
2023-05-10T03:38:24.055Z,616.00
2023-05-10T03:39:23.960Z,613.00
2023-05-10T03:40:23.855Z,610.00
2023-05-10T03:41:23.867Z,611.00
2023-05-10T03:42:23.835Z,611.00
2023-05-10T03:43:23.806Z,611.00
2023-05-10T03:44:23.824Z,613.00
2023-05-10T03:45:23.865Z,609.00
2023-05-10T03:46:23.997Z,613.00
2023-05-10T03:47:23.915Z,607.00
2023-05-10T03:48:23.920Z,612.00
2023-05-10T03:49:23.917Z,617.00
2023-05-10T03:50:23.932Z,613.00
2023-05-10T03:51:23.973Z,609.00
2023-05-10T03:52:23.939Z,608.00
2023-05-10T03:53:23.985Z,617.00
2023-05-10T03:54:24.001Z,616.00
2023-05-10T03:55:24.050Z,613.00
2023-05-10T03:56:24.086Z,615.00
2023-05-10T03:57:24.088Z,609.00
2023-05-10T03:58:24.048Z,607.00
2023-05-10T03:59:24.103Z,609.00
2023-05-10T04:00:24.115Z,612.00
2023-05-10T04:01:24.151Z,613.00
2023-05-10T04:02:24.234Z,614.00
2023-05-10T04:03:24.245Z,611.00
2023-05-10T04:04:24.152Z,613.00
2023-05-10T04:05:24.209Z,614.00
2023-05-10T04:06:24.285Z,614.00
2023-05-10T04:07:24.265Z,615.00
2023-05-10T04:08:24.304Z,616.00
2023-05-10T04:09:24.293Z,617.00
2023-05-10T04:10:24.329Z,612.00
2023-05-10T04:11:24.382Z,614.00
2023-05-10T04:12:24.381Z,612.00
2023-05-10T04:13:24.531Z,617.00
2023-05-10T04:14:24.404Z,612.00
2023-05-10T04:15:24.437Z,609.00
2023-05-10T04:16:24.458Z,608.00
2023-05-10T04:17:24.509Z,617.00
2023-05-10T04:18:24.463Z,617.00
2023-05-10T04:19:24.536Z,616.00
2023-05-10T04:20:24.515Z,618.00
2023-05-10T04:21:24.576Z,614.00
2023-05-10T04:22:24.570Z,615.00
2023-05-10T04:23:24.605Z,611.00
2023-05-10T04:24:24.644Z,607.00
2023-05-10T04:25:24.629Z,614.00
2023-05-10T04:26:24.644Z,610.00
2023-05-10T04:27:24.693Z,610.00
2023-05-10T04:28:24.700Z,610.00
2023-05-10T04:29:24.721Z,608.00
2023-05-10T04:30:24.748Z,610.00
2023-05-10T04:31:24.809Z,604.00
2023-05-10T04:32:24.788Z,601.00
2023-05-10T04:33:24.769Z,606.00
2023-05-10T04:34:24.799Z,609.00
2023-05-10T04:35:24.854Z,605.00
2023-05-10T04:36:24.866Z,606.00
2023-05-10T04:37:24.898Z,603.00
2023-05-10T04:38:24.939Z,606.00
2023-05-10T04:39:24.942Z,606.00
2023-05-10T04:40:25.928Z,605.00
2023-05-10T04:41:24.988Z,603.00
2023-05-10T04:42:24.996Z,607.00
2023-05-10T04:43:25.012Z,609.00
2023-05-10T04:44:25.027Z,606.00
2023-05-10T04:45:25.058Z,603.00
2023-05-10T04:46:25.167Z,609.00
2023-05-10T04:47:25.156Z,607.00
2023-05-10T04:48:25.139Z,608.00
2023-05-10T04:49:25.285Z,606.00
2023-05-10T04:50:25.158Z,607.00
2023-05-10T04:51:25.163Z,606.00
2023-05-10T04:52:25.235Z,605.00
2023-05-10T04:53:25.203Z,607.00
2023-05-10T04:54:25.245Z,608.00
2023-05-10T04:55:25.299Z,609.00
2023-05-10T04:56:25.307Z,606.00
2023-05-10T04:57:25.283Z,607.00
2023-05-10T04:58:25.328Z,596.00
2023-05-10T04:59:25.403Z,580.00
2023-05-10T05:00:25.394Z,569.00
2023-05-10T05:01:25.479Z,558.00
2023-05-10T05:02:25.590Z,552.00
2023-05-10T05:03:25.679Z,547.00
2023-05-10T05:04:25.631Z,539.00
2023-05-10T05:05:25.769Z,534.00
2023-05-10T05:06:25.735Z,530.00
2023-05-10T05:07:25.742Z,525.00
2023-05-10T05:08:25.853Z,526.00
2023-05-10T05:09:25.868Z,513.00
2023-05-10T05:10:25.918Z,520.00
2023-05-10T05:11:25.933Z,514.00
2023-05-10T05:12:25.952Z,511.00
2023-05-10T05:13:26.120Z,509.00
2023-05-10T05:14:26.075Z,500.00
2023-05-10T05:15:26.004Z,508.00
2023-05-10T05:16:26.095Z,501.00
2023-05-10T05:17:26.057Z,500.00
2023-05-10T05:18:26.069Z,505.00
2023-05-10T05:19:26.076Z,501.00
2023-05-10T05:20:26.097Z,507.00
2023-05-10T05:21:26.124Z,508.00
2023-05-10T05:22:26.098Z,512.00
2023-05-10T05:23:26.107Z,501.00
2023-05-10T05:24:26.188Z,497.00
2023-05-10T05:25:26.111Z,503.00
2023-05-10T05:26:26.142Z,504.00
2023-05-10T05:27:26.143Z,500.00
2023-05-10T05:28:26.169Z,514.00
2023-05-10T05:29:26.200Z,509.00
2023-05-10T05:30:26.216Z,516.00
2023-05-10T05:31:26.294Z,516.00
2023-05-10T05:32:26.315Z,520.00
2023-05-10T05:33:26.280Z,521.00
2023-05-10T05:34:26.389Z,521.00
2023-05-10T05:35:26.311Z,521.00
2023-05-10T05:36:26.309Z,509.00
2023-05-10T05:37:26.320Z,504.00
2023-05-10T05:38:26.321Z,508.00
2023-05-10T05:39:26.433Z,516.00
2023-05-10T05:40:26.367Z,509.00
2023-05-10T05:41:26.502Z,512.00
2023-05-10T05:42:26.430Z,500.00
2023-05-10T05:43:26.504Z,504.00
2023-05-10T05:44:26.558Z,509.00
2023-05-10T05:45:26.600Z,505.00
2023-05-10T05:46:26.664Z,518.00
2023-05-10T05:47:26.744Z,546.00
2023-05-10T05:48:26.833Z,550.00
2023-05-10T05:49:26.782Z,562.00
2023-05-10T05:50:26.849Z,564.00
2023-05-10T05:51:26.911Z,570.00
2023-05-10T05:52:26.946Z,573.00
2023-05-10T05:53:26.982Z,573.00
2023-05-10T05:54:27.002Z,583.00
2023-05-10T05:55:27.034Z,587.00
2023-05-10T05:56:26.947Z,601.00
2023-05-10T05:57:26.972Z,607.00
2023-05-10T05:58:27.003Z,617.00
2023-05-10T05:59:27.018Z,624.00
2023-05-10T06:00:27.076Z,623.00
2023-05-10T06:01:27.449Z,633.00
2023-05-10T06:02:27.266Z,637.00
2023-05-10T06:03:27.224Z,654.00
2023-05-10T06:04:27.498Z,658.00
2023-05-10T06:05:27.316Z,668.00
2023-05-10T06:06:27.427Z,680.00
2023-05-10T06:07:27.435Z,697.00
2023-05-10T06:08:27.451Z,715.00
2023-05-10T06:09:27.958Z,724.00
2023-05-10T06:10:27.611Z,748.00
2023-05-10T06:11:27.929Z,755.00
2023-05-10T06:12:27.550Z,776.00
2023-05-10T06:13:27.585Z,798.00
2023-05-10T06:14:27.523Z,826.00
2023-05-10T06:15:27.516Z,824.00
2023-05-10T06:16:27.567Z,840.00
2023-05-10T06:17:27.634Z,861.00
2023-05-10T06:18:27.565Z,870.00
2023-05-10T06:19:27.568Z,863.00
2023-05-10T06:20:27.659Z,896.00
2023-05-10T06:21:27.512Z,912.00
2023-05-10T06:22:27.529Z,927.00
2023-05-10T06:23:27.565Z,933.00
2023-05-10T06:24:27.553Z,927.00
2023-05-10T06:25:27.553Z,951.00
2023-05-10T06:26:27.557Z,970.00
2023-05-10T06:27:27.567Z,983.00
2023-05-10T06:28:27.929Z,992.00
2023-05-10T06:29:27.594Z,993.00
2023-05-10T06:30:27.677Z,1009.00
2023-05-10T06:31:27.636Z,1027.00
2023-05-10T06:32:27.591Z,1050.00
2023-05-10T06:33:27.616Z,1055.00
2023-05-10T06:34:27.616Z,1085.00
2023-05-10T06:35:27.636Z,1094.00
2023-05-10T06:36:27.679Z,1097.00
2023-05-10T06:37:27.694Z,1075.00
2023-05-10T06:38:27.949Z,1069.00
2023-05-10T06:39:27.698Z,947.00
2023-05-10T06:40:27.719Z,883.00
2023-05-10T06:41:27.811Z,899.00
2023-05-10T06:42:27.730Z,920.00
2023-05-10T06:43:27.737Z,923.00
2023-05-10T06:44:27.741Z,889.00
2023-05-10T06:45:27.757Z,855.00
2023-05-10T06:46:27.739Z,852.00
2023-05-10T06:47:28.999Z,858.00
2023-05-10T06:48:27.820Z,853.00
2023-05-10T06:49:28.002Z,864.00
2023-05-10T06:50:27.881Z,862.00
2023-05-10T06:51:27.882Z,867.00
2023-05-10T06:52:27.901Z,869.00
2023-05-10T06:53:28.004Z,874.00
2023-05-10T06:54:28.070Z,864.00
2023-05-10T06:55:28.490Z,850.00
2023-05-10T06:56:27.970Z,839.00
2023-05-10T06:57:31.757Z,833.00
2023-05-10T06:58:27.987Z,834.00
2023-05-10T06:59:28.027Z,833.00
2023-05-10T07:00:28.067Z,834.00
2023-05-10T07:01:27.979Z,821.00
2023-05-10T07:02:28.114Z,819.00
2023-05-10T07:03:27.977Z,823.00
2023-05-10T07:04:27.997Z,821.00
2023-05-10T07:05:27.971Z,817.00
2023-05-10T07:06:33.700Z,809.00
2023-05-10T07:07:28.919Z,811.00
2023-05-10T07:08:27.904Z,810.00
2023-05-10T07:09:27.978Z,797.00
2023-05-10T07:10:27.969Z,798.00
2023-05-10T07:11:27.905Z,790.00
2023-05-10T07:12:28.034Z,827.00
2023-05-10T07:13:27.915Z,813.00
2023-05-10T07:14:27.979Z,839.00
2023-05-10T07:15:28.016Z,824.00
2023-05-10T07:16:27.892Z,830.00
2023-05-10T07:17:27.949Z,831.00
2023-05-10T07:18:27.911Z,840.00
2023-05-10T07:19:27.943Z,837.00
2023-05-10T07:20:27.892Z,860.00
2023-05-10T07:21:27.890Z,861.00
2023-05-10T07:22:27.978Z,867.00
2023-05-10T07:23:27.816Z,881.00
2023-05-10T07:24:27.805Z,908.00
2023-05-10T07:25:27.813Z,915.00
2023-05-10T07:26:27.819Z,919.00
2023-05-10T07:27:27.887Z,935.00
2023-05-10T07:28:27.963Z,954.00
2023-05-10T07:29:27.988Z,963.00
2023-05-10T07:30:28.064Z,965.00
2023-05-10T07:31:28.104Z,970.00
2023-05-10T07:32:28.236Z,906.00
2023-05-10T07:33:28.183Z,852.00
2023-05-10T07:34:28.247Z,802.00
2023-05-10T07:35:28.497Z,755.00
2023-05-10T07:36:28.251Z,742.00
2023-05-10T07:37:30.004Z,805.00
2023-05-10T07:38:28.265Z,762.00
2023-05-10T07:39:28.578Z,734.00
2023-05-10T07:40:28.372Z,729.00
2023-05-10T07:41:28.539Z,741.00
2023-05-10T07:42:28.408Z,780.00
2023-05-10T07:43:28.528Z,778.00
2023-05-10T07:44:28.526Z,780.00
2023-05-10T07:45:28.520Z,777.00
2023-05-10T07:46:28.592Z,756.00
2023-05-10T07:47:28.596Z,766.00
2023-05-10T07:48:28.574Z,728.00
2023-05-10T07:49:28.658Z,709.00
2023-05-10T07:50:28.641Z,726.00
2023-05-10T07:51:28.656Z,722.00
2023-05-10T07:52:28.657Z,717.00
2023-05-10T07:53:28.776Z,705.00
2023-05-10T07:54:28.721Z,708.00
2023-05-10T07:55:28.730Z,704.00
2023-05-10T07:56:28.731Z,682.00
2023-05-10T07:57:28.823Z,685.00
2023-05-10T07:58:28.806Z,701.00
2023-05-10T07:59:28.821Z,721.00
2023-05-10T08:00:28.830Z,726.00
2023-05-10T08:01:28.838Z,750.00
2023-05-10T08:02:28.906Z,731.00
2023-05-10T08:03:29.008Z,739.00
2023-05-10T08:04:28.935Z,740.00
2023-05-10T08:05:28.854Z,734.00
2023-05-10T08:06:28.856Z,749.00
2023-05-10T08:07:28.889Z,735.00
2023-05-10T08:08:28.880Z,727.00
2023-05-10T08:09:28.927Z,738.00
2023-05-10T08:10:28.894Z,748.00
2023-05-10T08:11:28.891Z,764.00
2023-05-10T08:12:29.117Z,763.00
2023-05-10T08:13:29.016Z,767.00
2023-05-10T08:14:28.909Z,774.00
2023-05-10T08:15:28.924Z,786.00
2023-05-10T08:16:28.994Z,795.00
2023-05-10T08:17:29.016Z,800.00
2023-05-10T08:18:29.028Z,791.00
2023-05-10T08:19:28.949Z,821.00
2023-05-10T08:20:29.111Z,840.00
2023-05-10T08:21:29.024Z,847.00
2023-05-10T08:22:29.070Z,860.00
2023-05-10T08:23:29.067Z,865.00
2023-05-10T08:24:29.071Z,881.00
2023-05-10T08:25:29.151Z,878.00
2023-05-10T08:26:29.269Z,835.00
2023-05-10T08:27:29.243Z,724.00
2023-05-10T08:28:29.213Z,730.00
2023-05-10T08:29:32.782Z,737.00
2023-05-10T08:30:30.252Z,726.00
2023-05-10T08:31:29.314Z,707.00
2023-05-10T08:32:29.318Z,678.00
2023-05-10T08:33:29.188Z,661.00
2023-05-10T08:34:29.208Z,650.00
2023-05-10T08:35:29.199Z,652.00
2023-05-10T08:36:29.187Z,649.00
2023-05-10T08:37:29.329Z,661.00
2023-05-10T08:38:29.171Z,695.00
2023-05-10T08:39:30.905Z,716.00
2023-05-10T08:40:29.133Z,715.00
2023-05-10T08:41:29.138Z,718.00
2023-05-10T08:42:29.163Z,733.00
2023-05-10T08:43:29.116Z,726.00
2023-05-10T08:44:29.184Z,732.00
2023-05-10T08:45:29.174Z,772.00
2023-05-10T08:46:29.245Z,765.00
2023-05-10T08:47:29.314Z,768.00
2023-05-10T08:48:29.372Z,790.00
2023-05-10T08:49:29.365Z,806.00
2023-05-10T08:50:29.531Z,829.00
2023-05-10T08:51:29.479Z,830.00
2023-05-10T08:52:29.433Z,836.00
2023-05-10T08:53:29.546Z,846.00
2023-05-10T08:54:29.405Z,851.00
2023-05-10T08:55:29.399Z,860.00
2023-05-10T08:56:29.513Z,871.00
2023-05-10T08:57:29.460Z,901.00
2023-05-10T08:58:29.515Z,919.00
2023-05-10T08:59:29.608Z,926.00
2023-05-10T09:00:29.597Z,956.00
2023-05-10T09:01:29.779Z,963.00
2023-05-10T09:02:29.770Z,982.00
2023-05-10T09:03:29.764Z,986.00
2023-05-10T09:04:29.912Z,1008.00
2023-05-10T09:05:29.919Z,1016.00
2023-05-10T09:06:29.895Z,1047.00
2023-05-10T09:07:30.001Z,1037.00
2023-05-10T09:08:30.002Z,1060.00
2023-05-10T09:09:30.052Z,1065.00
2023-05-10T09:10:30.122Z,1085.00
2023-05-10T09:11:30.186Z,1101.00
2023-05-10T09:12:30.195Z,1114.00
2023-05-10T09:13:30.307Z,1119.00
2023-05-10T09:14:30.294Z,1141.00
2023-05-10T09:15:30.361Z,1156.00
2023-05-10T09:16:30.405Z,1157.00
2023-05-10T09:17:30.437Z,1171.00
2023-05-10T09:18:30.588Z,1150.00
2023-05-10T09:19:30.484Z,1174.00
2023-05-10T09:20:30.547Z,1173.00
2023-05-10T09:21:31.026Z,1089.00
2023-05-10T09:22:30.655Z,1097.00
2023-05-10T09:23:30.732Z,1037.00
2023-05-10T09:24:30.763Z,1023.00
2023-05-10T09:25:30.840Z,1002.00
2023-05-10T09:26:31.134Z,1015.00
2023-05-10T09:27:30.953Z,1021.00
2023-05-10T09:28:31.065Z,1052.00
2023-05-10T09:29:31.022Z,1053.00
2023-05-10T09:30:31.073Z,1067.00
2023-05-10T09:31:31.152Z,1049.00
2023-05-10T09:32:31.241Z,1078.00
2023-05-10T09:33:31.295Z,1069.00
2023-05-10T09:34:32.143Z,908.00
2023-05-10T09:35:31.250Z,850.00
2023-05-10T09:36:31.363Z,779.00
2023-05-10T09:37:31.260Z,773.00
2023-05-10T09:38:31.540Z,787.00
2023-05-10T09:39:31.357Z,795.00
2023-05-10T09:40:31.385Z,821.00
2023-05-10T09:41:31.486Z,846.00
2023-05-10T09:42:31.414Z,875.00
2023-05-10T09:43:31.586Z,869.00
2023-05-10T09:44:31.481Z,886.00
2023-05-10T09:45:31.420Z,915.00
2023-05-10T09:46:31.460Z,926.00
2023-05-10T09:47:31.468Z,930.00
2023-05-10T09:48:31.502Z,932.00
2023-05-10T09:49:31.456Z,942.00
2023-05-10T09:50:31.423Z,947.00
2023-05-10T09:51:31.458Z,956.00
2023-05-10T09:52:32.121Z,969.00
2023-05-10T09:53:31.667Z,949.00
2023-05-10T09:54:31.665Z,950.00
2023-05-10T09:55:31.766Z,981.00
2023-05-10T09:56:31.782Z,971.00
2023-05-10T09:57:34.524Z,982.00
2023-05-10T09:58:31.784Z,986.00
2023-05-10T09:59:31.824Z,983.00
2023-05-10T10:00:31.797Z,998.00
2023-05-10T10:01:31.837Z,1001.00
2023-05-10T10:02:32.566Z,1009.00
2023-05-10T10:03:31.756Z,1019.00
2023-05-10T10:04:31.803Z,1021.00
2023-05-10T10:05:31.740Z,1050.00
2023-05-10T10:06:31.768Z,1051.00
2023-05-10T10:07:31.788Z,1055.00
2023-05-10T10:08:32.110Z,1064.00
2023-05-10T10:09:31.697Z,1090.00
2023-05-10T10:10:31.701Z,1086.00
2023-05-10T10:11:31.712Z,1106.00
2023-05-10T10:12:31.736Z,1110.00
2023-05-10T10:13:31.729Z,1122.00
2023-05-10T10:14:31.708Z,1127.00
2023-05-10T10:15:32.048Z,1139.00
2023-05-10T10:16:31.798Z,1138.00
2023-05-10T10:17:31.694Z,1159.00
2023-05-10T10:18:32.101Z,1178.00
2023-05-10T10:19:32.070Z,1181.00
2023-05-10T10:20:31.624Z,1187.00
2023-05-10T10:21:31.634Z,1190.00
2023-05-10T10:22:32.060Z,1203.00
2023-05-10T10:23:31.663Z,1212.00
2023-05-10T10:24:31.805Z,1221.00
2023-05-10T10:25:31.622Z,1211.00
2023-05-10T10:26:32.138Z,1225.00
2023-05-10T10:27:31.577Z,1222.00
2023-05-10T10:28:31.626Z,1223.00
2023-05-10T10:29:31.623Z,1215.00
2023-05-10T10:30:31.593Z,1207.00
2023-05-10T10:31:31.590Z,1130.00
2023-05-10T10:32:31.708Z,1048.00
2023-05-10T10:33:31.584Z,1017.00
2023-05-10T10:34:31.588Z,1082.00
2023-05-10T10:35:31.576Z,1139.00
2023-05-10T10:36:31.543Z,1156.00
2023-05-10T10:37:31.550Z,1131.00
2023-05-10T10:38:31.554Z,1113.00
2023-05-10T10:39:31.498Z,1141.00
2023-05-10T10:40:34.377Z,1132.00
2023-05-10T10:41:31.710Z,1156.00
2023-05-10T10:42:31.586Z,1152.00
2023-05-10T10:43:31.500Z,1166.00
2023-05-10T10:44:33.078Z,1168.00
2023-05-10T10:45:31.503Z,1177.00
2023-05-10T10:46:31.442Z,1169.00
2023-05-10T10:47:31.468Z,1178.00
2023-05-10T10:48:31.447Z,1197.00
2023-05-10T10:49:31.459Z,1197.00
2023-05-10T10:50:31.421Z,1209.00
2023-05-10T10:51:31.427Z,1227.00
2023-05-10T10:52:31.441Z,1231.00
2023-05-10T10:53:31.487Z,1234.00
2023-05-10T10:54:31.468Z,1243.00
2023-05-10T10:55:31.456Z,1254.00
2023-05-10T10:56:31.398Z,1258.00
2023-05-10T10:57:31.384Z,1255.00
2023-05-10T10:58:31.436Z,1265.00
2023-05-10T10:59:31.378Z,1275.00
2023-05-10T11:00:31.389Z,1282.00
2023-05-10T11:01:31.515Z,1301.00
2023-05-10T11:02:31.448Z,1313.00
2023-05-10T11:03:31.366Z,1321.00
2023-05-10T11:04:31.493Z,1334.00
2023-05-10T11:05:31.558Z,1323.00
2023-05-10T11:06:31.334Z,1357.00
2023-05-10T11:07:31.340Z,1356.00
2023-05-10T11:08:31.602Z,1369.00
2023-05-10T11:09:31.343Z,1383.00
2023-05-10T11:10:31.368Z,1376.00
2023-05-10T11:11:31.665Z,1402.00
2023-05-10T11:12:31.635Z,1391.00
2023-05-10T11:13:31.500Z,1412.00
2023-05-10T11:14:31.383Z,1422.00
2023-05-10T11:15:31.603Z,1433.00
2023-05-10T11:16:31.537Z,1432.00
2023-05-10T11:17:31.664Z,1444.00
2023-05-10T11:18:31.565Z,1421.00
2023-05-10T11:19:31.450Z,1428.00
2023-05-10T11:20:31.486Z,1451.00
2023-05-10T11:21:31.487Z,1427.00
2023-05-10T11:22:31.538Z,1358.00
2023-05-10T11:23:31.554Z,1302.00
2023-05-10T11:24:31.660Z,1183.00
2023-05-10T11:25:31.671Z,1026.00
2023-05-10T11:26:31.696Z,908.00
2023-05-10T11:27:31.704Z,851.00
2023-05-10T11:28:31.819Z,787.00
2023-05-10T11:29:31.792Z,741.00
2023-05-10T11:30:31.853Z,686.00
2023-05-10T11:31:31.829Z,650.00
2023-05-10T11:32:31.964Z,647.00
2023-05-10T11:33:31.822Z,619.00
2023-05-10T11:34:31.873Z,582.00
2023-05-10T11:35:31.833Z,560.00
2023-05-10T11:36:31.837Z,528.00
2023-05-10T11:37:31.837Z,513.00
2023-05-10T11:38:31.905Z,512.00
2023-05-10T11:39:31.894Z,521.00
2023-05-10T11:40:31.914Z,519.00
2023-05-10T11:41:31.999Z,512.00
2023-05-10T11:42:31.972Z,515.00
2023-05-10T11:43:32.028Z,503.00
2023-05-10T11:44:32.035Z,500.00
2023-05-10T11:45:32.100Z,504.00
2023-05-10T11:46:32.268Z,502.00
2023-05-10T11:47:32.154Z,519.00
2023-05-10T11:48:32.238Z,502.00
2023-05-10T11:49:33.119Z,502.00
2023-05-10T11:50:32.282Z,506.00
2023-05-10T11:51:32.301Z,506.00
2023-05-10T11:52:32.415Z,507.00
2023-05-10T11:53:32.400Z,500.00
2023-05-10T11:54:32.554Z,500.00
2023-05-10T11:55:32.524Z,518.00
2023-05-10T11:56:32.672Z,503.00
2023-05-10T11:57:32.640Z,511.00
2023-05-10T11:58:32.762Z,502.00
2023-05-10T11:59:32.846Z,500.00
2023-05-10T12:00:32.841Z,502.00
2023-05-10T12:01:33.051Z,503.00
2023-05-10T12:02:33.023Z,504.00
2023-05-10T12:03:33.363Z,559.00
2023-05-10T12:04:33.105Z,599.00
2023-05-10T12:05:33.087Z,618.00
2023-05-10T12:06:33.337Z,636.00
2023-05-10T12:07:33.210Z,659.00
2023-05-10T12:08:33.236Z,660.00
2023-05-10T12:09:43.080Z,691.00
2023-05-10T12:10:34.319Z,694.00
2023-05-10T12:11:34.123Z,709.00
2023-05-10T12:12:33.241Z,748.00
2023-05-10T12:13:33.270Z,781.00
2023-05-10T12:14:33.241Z,858.00
2023-05-10T12:15:33.350Z,910.00
2023-05-10T12:16:33.338Z,910.00
2023-05-10T12:17:33.265Z,946.00
2023-05-10T12:18:33.208Z,998.00
2023-05-10T12:19:33.240Z,1052.00
2023-05-10T12:20:33.201Z,1118.00
2023-05-10T12:21:33.224Z,1146.00
2023-05-10T12:22:33.188Z,1195.00
2023-05-10T12:23:33.185Z,1224.00
2023-05-10T12:24:33.195Z,1283.00